sensor_id;sensor_type;location;lat;lon;timestamp;P1;durP1;ratioP1;P2;durP2;ratioP2
76477;SDS011;65309;49.790;18.972;2023-04-06T03:46:53;5.68;;;2.85;;
76477;SDS011;65309;49.790;18.972;2023-04-06T03:56:57;8.95;;;4.35;;
76477;SDS011;65309;49.790;18.972;2023-04-06T04:02:01;2.83;;;2.53;;
76477;SDS011;65309;49.790;18.972;2023-04-06T04:07:03;5.82;;;5.32;;
76477;SDS011;65309;49.790;18.972;2023-04-06T04:12:05;6.05;;;5.03;;
76477;SDS011;65309;49.790;18.972;2023-04-06T04:17:09;4.22;;;3.67;;
76477;SDS011;65309;49.790;18.972;2023-04-06T04:22:11;7.30;;;3.67;;
76477;SDS011;65309;49.790;18.972;2023-04-06T04:27:13;5.45;;;3.25;;
76477;SDS011;65309;49.790;18.972;2023-04-06T04:32:17;4.25;;;3.20;;
76477;SDS011;65309;49.790;18.972;2023-04-06T04:37:19;6.10;;;2.80;;
76477;SDS011;65309;49.790;18.972;2023-04-06T04:42:21;3.92;;;2.92;;
76477;SDS011;65309;49.790;18.972;2023-04-06T04:47:25;4.88;;;2.55;;
76477;SDS011;65309;49.790;18.972;2023-04-06T04:52:27;5.78;;;4.15;;
76477;SDS011;65309;49.790;18.972;2023-04-06T04:57:29;5.05;;;4.20;;
76477;SDS011;65309;49.790;18.972;2023-04-06T05:02:32;3.67;;;3.38;;
76477;SDS011;65309;49.790;18.972;2023-04-06T05:07:35;7.80;;;4.88;;
76477;SDS011;65309;49.790;18.972;2023-04-06T05:12:37;7.25;;;5.20;;
76477;SDS011;65309;49.790;18.972;2023-04-06T05:17:40;7.10;;;4.85;;
76477;SDS011;65309;49.790;18.972;2023-04-06T05:22:42;10.75;;;7.35;;
76477;SDS011;65309;49.790;18.972;2023-04-06T05:27:44;9.55;;;6.57;;
76477;SDS011;65309;49.790;18.972;2023-04-06T05:32:48;14.52;;;7.88;;
76477;SDS011;65309;49.790;18.972;2023-04-06T05:37:50;10.70;;;7.80;;
76477;SDS011;65309;49.790;18.972;2023-04-06T05:42:52;14.57;;;10.90;;
76477;SDS011;65309;49.790;18.972;2023-04-06T05:47:56;14.35;;;9.70;;
76477;SDS011;65309;49.790;18.972;2023-04-06T05:52:58;13.27;;;9.00;;
76477;SDS011;65309;49.790;18.972;2023-04-06T05:58:00;20.35;;;11.57;;
76477;SDS011;65309;49.790;18.972;2023-04-06T06:03:04;16.00;;;8.73;;
76477;SDS011;65309;49.790;18.972;2023-04-06T06:08:07;11.52;;;8.38;;
76477;SDS011;65309;49.790;18.972;2023-04-06T06:13:09;15.57;;;9.80;;
76477;SDS011;65309;49.790;18.972;2023-04-06T06:18:16;7.65;;;4.25;;
76477;SDS011;65309;49.790;18.972;2023-04-06T06:23:18;10.70;;;6.45;;
76477;SDS011;65309;49.790;18.972;2023-04-06T06:28:20;12.95;;;3.83;;
76477;SDS011;65309;49.790;18.972;2023-04-06T06:33:23;13.75;;;4.93;;
76477;SDS011;65309;49.790;18.972;2023-04-06T06:38:25;11.07;;;7.80;;
76477;SDS011;65309;49.790;18.972;2023-04-06T06:43:27;8.32;;;4.57;;
76477;SDS011;65309;49.790;18.972;2023-04-06T06:48:31;8.30;;;6.07;;
76477;SDS011;65309;49.790;18.972;2023-04-06T06:53:33;7.03;;;4.72;;
76477;SDS011;65309;49.790;18.972;2023-04-06T06:58:35;4.28;;;3.80;;
76477;SDS011;65309;49.790;18.972;2023-04-06T07:03:38;4.57;;;3.30;;
76477;SDS011;65309;49.790;18.972;2023-04-06T07:08:40;8.65;;;3.65;;
76477;SDS011;65309;49.790;18.972;2023-04-06T07:13:42;5.80;;;4.70;;
76477;SDS011;65309;49.790;18.972;2023-04-06T07:18:46;7.30;;;3.88;;
76477;SDS011;65309;49.790;18.972;2023-04-06T07:23:48;3.58;;;2.83;;
76477;SDS011;65309;49.790;18.972;2023-04-06T07:28:50;4.55;;;3.58;;
76477;SDS011;65309;49.790;18.972;2023-04-06T07:33:53;4.22;;;3.38;;
76477;SDS011;65309;49.790;18.972;2023-04-06T07:38:56;6.53;;;3.60;;
76477;SDS011;65309;49.790;18.972;2023-04-06T07:43:58;14.48;;;5.90;;
76477;SDS011;65309;49.790;18.972;2023-04-06T07:49:01;9.32;;;3.50;;
76477;SDS011;65309;49.790;18.972;2023-04-06T07:54:04;6.78;;;3.80;;
76477;SDS011;65309;49.790;18.972;2023-04-06T07:59:06;4.68;;;3.25;;
76477;SDS011;65309;49.790;18.972;2023-04-06T08:04:09;7.78;;;4.20;;
76477;SDS011;65309;49.790;18.972;2023-04-06T08:09:12;4.25;;;3.00;;
76477;SDS011;65309;49.790;18.972;2023-04-06T08:14:14;4.82;;;4.03;;
76477;SDS011;65309;49.790;18.972;2023-04-06T08:19:18;7.72;;;3.47;;
76477;SDS011;65309;49.790;18.972;2023-04-06T08:24:20;4.10;;;2.85;;
76477;SDS011;65309;49.790;18.972;2023-04-06T08:29:23;8.88;;;5.10;;
76477;SDS011;65309;49.790;18.972;2023-04-06T08:34:26;4.93;;;2.38;;
76477;SDS011;65309;49.790;18.972;2023-04-06T08:39:28;6.40;;;3.83;;
76477;SDS011;65309;49.790;18.972;2023-04-06T08:44:32;5.32;;;3.08;;
76477;SDS011;65309;49.790;18.972;2023-04-06T08:49:36;9.38;;;4.13;;
76477;SDS011;65309;49.790;18.972;2023-04-06T08:54:39;4.38;;;3.60;;
76477;SDS011;65309;49.790;18.972;2023-04-06T08:59:41;1.00;;;0.90;;
76477;SDS011;65309;49.790;18.972;2023-04-06T09:04:45;7.07;;;2.78;;
76477;SDS011;65309;49.790;18.972;2023-04-06T09:09:49;5.57;;;2.05;;
76477;SDS011;65309;49.790;18.972;2023-04-06T09:14:53;5.03;;;2.78;;
76477;SDS011;65309;49.790;18.972;2023-04-06T09:19:57;4.25;;;2.60;;
76477;SDS011;65309;49.790;18.972;2023-04-06T09:24:59;4.60;;;3.95;;
76477;SDS011;65309;49.790;18.972;2023-04-06T09:30:05;13.38;;;7.35;;
76477;SDS011;65309;49.790;18.972;2023-04-06T09:35:10;10.80;;;4.78;;
76477;SDS011;65309;49.790;18.972;2023-04-06T09:40:13;12.27;;;3.70;;
76477;SDS011;65309;49.790;18.972;2023-04-06T09:45:15;2.22;;;2.03;;
76477;SDS011;65309;49.790;18.972;2023-04-06T09:50:19;8.93;;;2.97;;
76477;SDS011;65309;49.790;18.972;2023-04-06T09:55:23;4.32;;;2.45;;
76477;SDS011;65309;49.790;18.972;2023-04-06T10:00:28;3.28;;;2.67;;
76477;SDS011;65309;49.790;18.972;2023-04-06T10:05:37;7.05;;;4.00;;
76477;SDS011;65309;49.790;18.972;2023-04-06T10:10:43;7.30;;;5.40;;
76477;SDS011;65309;49.790;18.972;2023-04-06T10:15:46;7.22;;;4.10;;
76477;SDS011;65309;49.790;18.972;2023-04-06T10:20:51;6.47;;;4.57;;
76477;SDS011;65309;49.790;18.972;2023-04-06T10:25:56;4.18;;;3.35;;
76477;SDS011;65309;49.790;18.972;2023-04-06T10:31:01;9.65;;;6.28;;
76477;SDS011;65309;49.790;18.972;2023-04-06T10:36:10;4.93;;;3.40;;
76477;SDS011;65309;49.790;18.972;2023-04-06T10:41:16;6.85;;;3.55;;
76477;SDS011;65309;49.790;18.972;2023-04-06T10:46:24;5.82;;;3.78;;
76477;SDS011;65309;49.790;18.972;2023-04-06T10:51:28;4.80;;;3.90;;
76477;SDS011;65309;49.790;18.972;2023-04-06T10:56:30;4.72;;;3.38;;
76477;SDS011;65309;49.790;18.972;2023-04-06T11:01:36;5.43;;;4.10;;
76477;SDS011;65309;49.790;18.972;2023-04-06T11:06:39;1.38;;;1.27;;
76477;SDS011;65309;49.790;18.972;2023-04-06T11:11:41;6.25;;;4.13;;
76477;SDS011;65309;49.790;18.972;2023-04-06T11:16:45;5.35;;;3.38;;
76477;SDS011;65309;49.790;18.972;2023-04-06T11:21:50;7.00;;;4.15;;
76477;SDS011;65309;49.790;18.972;2023-04-06T11:26:54;7.88;;;5.75;;
76477;SDS011;65309;49.790;18.972;2023-04-06T11:31:58;5.90;;;3.75;;
76477;SDS011;65309;49.790;18.972;2023-04-06T11:37:03;3.45;;;2.85;;
76477;SDS011;65309;49.790;18.972;2023-04-06T11:42:08;8.90;;;6.53;;
76477;SDS011;65309;49.790;18.972;2023-04-06T11:47:11;5.72;;;3.78;;
76477;SDS011;65309;49.790;18.972;2023-04-06T11:52:16;5.93;;;4.03;;
76477;SDS011;65309;49.790;18.972;2023-04-06T11:57:19;2.83;;;1.90;;
76477;SDS011;65309;49.790;18.972;2023-04-06T12:02:23;2.33;;;2.13;;
76477;SDS011;65309;49.790;18.972;2023-04-06T12:07:26;2.53;;;1.60;;
76477;SDS011;65309;49.790;18.972;2023-04-06T12:12:28;6.78;;;4.25;;
76477;SDS011;65309;49.790;18.972;2023-04-06T12:17:30;4.70;;;3.95;;
76477;SDS011;65309;49.790;18.972;2023-04-06T12:27:38;4.35;;;3.70;;
76477;SDS011;65309;49.790;18.972;2023-04-06T12:32:40;7.13;;;4.03;;
76477;SDS011;65309;49.790;18.972;2023-04-06T12:37:43;5.22;;;3.47;;
76477;SDS011;65309;49.790;18.972;2023-04-06T12:42:45;6.78;;;4.68;;
76477;SDS011;65309;49.790;18.972;2023-04-06T12:47:48;4.70;;;3.50;;
76477;SDS011;65309;49.790;18.972;2023-04-06T12:52:51;10.63;;;5.03;;
76477;SDS011;65309;49.790;18.972;2023-04-06T12:57:53;5.65;;;4.28;;
76477;SDS011;65309;49.790;18.972;2023-04-06T13:02:56;7.47;;;4.88;;
76477;SDS011;65309;49.790;18.972;2023-04-06T13:08:00;5.47;;;4.75;;
76477;SDS011;65309;49.790;18.972;2023-04-06T13:13:02;4.38;;;2.47;;
76477;SDS011;65309;49.790;18.972;2023-04-06T13:18:04;9.15;;;5.75;;
76477;SDS011;65309;49.790;18.972;2023-04-06T13:23:07;5.65;;;4.13;;
76477;SDS011;65309;49.790;18.972;2023-04-06T13:28:10;5.88;;;4.03;;
76477;SDS011;65309;49.790;18.972;2023-04-06T13:33:12;7.30;;;4.43;;
76477;SDS011;65309;49.790;18.972;2023-04-06T13:38:15;9.85;;;5.22;;
76477;SDS011;65309;49.790;18.972;2023-04-06T13:43:17;3.75;;;2.65;;
76477;SDS011;65309;49.790;18.972;2023-04-06T13:48:21;7.38;;;5.68;;
76477;SDS011;65309;49.790;18.972;2023-04-06T13:53:25;8.13;;;5.75;;
76477;SDS011;65309;49.790;18.972;2023-04-06T13:58:27;6.55;;;3.90;;
76477;SDS011;65309;49.790;18.972;2023-04-06T14:03:29;10.20;;;5.78;;
76477;SDS011;65309;49.790;18.972;2023-04-06T14:08:32;4.75;;;4.18;;
76477;SDS011;65309;49.790;18.972;2023-04-06T14:13:34;4.38;;;3.70;;
76477;SDS011;65309;49.790;18.972;2023-04-06T14:18:36;25.52;;;7.50;;
76477;SDS011;65309;49.790;18.972;2023-04-06T14:23:40;6.47;;;5.72;;
76477;SDS011;65309;49.790;18.972;2023-04-06T14:28:42;3.38;;;3.05;;
76477;SDS011;65309;49.790;18.972;2023-04-06T14:33:44;12.90;;;5.18;;
76477;SDS011;65309;49.790;18.972;2023-04-06T14:38:48;7.07;;;5.00;;
76477;SDS011;65309;49.790;18.972;2023-04-06T14:43:50;5.60;;;3.13;;
76477;SDS011;65309;49.790;18.972;2023-04-06T14:48:54;4.38;;;2.88;;
76477;SDS011;65309;49.790;18.972;2023-04-06T14:53:58;9.55;;;4.45;;
76477;SDS011;65309;49.790;18.972;2023-04-06T14:59:01;5.53;;;3.45;;
76477;SDS011;65309;49.790;18.972;2023-04-06T15:04:04;8.13;;;5.57;;
76477;SDS011;65309;49.790;18.972;2023-04-06T15:09:08;11.98;;;7.18;;
76477;SDS011;65309;49.790;18.972;2023-04-06T15:14:10;17.48;;;8.43;;
76477;SDS011;65309;49.790;18.972;2023-04-06T15:19:12;9.98;;;7.65;;
76477;SDS011;65309;49.790;18.972;2023-04-06T15:24:16;10.05;;;7.93;;
76477;SDS011;65309;49.790;18.972;2023-04-06T15:29:18;17.20;;;6.93;;
76477;SDS011;65309;49.790;18.972;2023-04-06T15:34:20;9.65;;;7.85;;
76477;SDS011;65309;49.790;18.972;2023-04-06T15:39:23;9.90;;;7.95;;
76477;SDS011;65309;49.790;18.972;2023-04-06T15:44:26;11.32;;;7.05;;
76477;SDS011;65309;49.790;18.972;2023-04-06T15:49:28;12.00;;;9.48;;
76477;SDS011;65309;49.790;18.972;2023-04-06T15:54:33;15.00;;;9.00;;
76477;SDS011;65309;49.790;18.972;2023-04-06T15:59:37;11.52;;;9.80;;
76477;SDS011;65309;49.790;18.972;2023-04-06T16:04:39;12.23;;;6.70;;
76477;SDS011;65309;49.790;18.972;2023-04-06T16:09:42;7.95;;;6.15;;
76477;SDS011;65309;49.790;18.972;2023-04-06T16:14:44;7.82;;;6.63;;
76477;SDS011;65309;49.790;18.972;2023-04-06T16:19:47;12.80;;;7.03;;
76477;SDS011;65309;49.790;18.972;2023-04-06T16:24:51;5.70;;;4.60;;
76477;SDS011;65309;49.790;18.972;2023-04-06T16:29:53;10.77;;;6.82;;
76477;SDS011;65309;49.790;18.972;2023-04-06T16:34:55;13.82;;;7.90;;
76477;SDS011;65309;49.790;18.972;2023-04-06T16:39:59;9.93;;;6.03;;
76477;SDS011;65309;49.790;18.972;2023-04-06T16:50:04;8.45;;;5.80;;
76477;SDS011;65309;49.790;18.972;2023-04-06T16:55:08;8.90;;;5.10;;
76477;SDS011;65309;49.790;18.972;2023-04-06T17:00:11;9.98;;;5.95;;
76477;SDS011;65309;49.790;18.972;2023-04-06T17:05:14;7.43;;;5.07;;
76477;SDS011;65309;49.790;18.972;2023-04-06T17:10:20;13.98;;;6.50;;
76477;SDS011;65309;49.790;18.972;2023-04-06T17:15:34;10.63;;;6.97;;
76477;SDS011;65309;49.790;18.972;2023-04-06T17:20:37;9.18;;;6.75;;
76477;SDS011;65309;49.790;18.972;2023-04-06T17:25:40;6.22;;;4.55;;
76477;SDS011;65309;49.790;18.972;2023-04-06T17:30:42;12.43;;;7.75;;
76477;SDS011;65309;49.790;18.972;2023-04-06T17:35:44;9.43;;;5.50;;
76477;SDS011;65309;49.790;18.972;2023-04-06T17:40:47;12.70;;;7.00;;
76477;SDS011;65309;49.790;18.972;2023-04-06T17:45:50;11.57;;;6.65;;
76477;SDS011;65309;49.790;18.972;2023-04-06T17:50:52;10.90;;;7.93;;
76477;SDS011;65309;49.790;18.972;2023-04-06T17:55:55;12.75;;;8.13;;
76477;SDS011;65309;49.790;18.972;2023-04-06T18:00:58;14.82;;;6.78;;
76477;SDS011;65309;49.790;18.972;2023-04-06T18:06:07;12.23;;;8.68;;
76477;SDS011;65309;49.790;18.972;2023-04-06T18:11:15;12.02;;;8.30;;
76477;SDS011;65309;49.790;18.972;2023-04-06T18:16:19;11.98;;;9.45;;
76477;SDS011;65309;49.790;18.972;2023-04-06T18:21:22;13.40;;;9.18;;
76477;SDS011;65309;49.790;18.972;2023-04-06T18:26:25;11.30;;;6.20;;
76477;SDS011;65309;49.790;18.972;2023-04-06T18:31:28;16.95;;;9.73;;
76477;SDS011;65309;49.790;18.972;2023-04-06T18:36:31;9.63;;;7.97;;
76477;SDS011;65309;49.790;18.972;2023-04-06T18:41:34;14.65;;;8.70;;
76477;SDS011;65309;49.790;18.972;2023-04-06T18:46:37;17.83;;;10.73;;
76477;SDS011;65309;49.790;18.972;2023-04-06T18:51:40;13.70;;;8.05;;
76477;SDS011;65309;49.790;18.972;2023-04-06T18:56:45;13.38;;;9.75;;
76477;SDS011;65309;49.790;18.972;2023-04-06T19:01:47;9.52;;;7.07;;
76477;SDS011;65309;49.790;18.972;2023-04-06T19:06:54;12.60;;;8.82;;
76477;SDS011;65309;49.790;18.972;2023-04-06T19:11:58;15.45;;;8.90;;
76477;SDS011;65309;49.790;18.972;2023-04-06T19:17:00;13.38;;;9.07;;
76477;SDS011;65309;49.790;18.972;2023-04-06T19:22:02;15.13;;;9.40;;
76477;SDS011;65309;49.790;18.972;2023-04-06T19:27:53;11.50;;;7.13;;
76477;SDS011;65309;49.790;18.972;2023-04-06T19:32:56;16.63;;;7.88;;
76477;SDS011;65309;49.790;18.972;2023-04-06T19:37:58;22.17;;;11.88;;
76477;SDS011;65309;49.790;18.972;2023-04-06T19:43:01;12.88;;;8.15;;
76477;SDS011;65309;49.790;18.972;2023-04-06T19:48:03;17.85;;;10.77;;
76477;SDS011;65309;49.790;18.972;2023-04-06T19:53:05;16.10;;;9.40;;
76477;SDS011;65309;49.790;18.972;2023-04-06T19:58:10;6.93;;;5.65;;
76477;SDS011;65309;49.790;18.972;2023-04-06T20:03:12;14.63;;;8.60;;
76477;SDS011;65309;49.790;18.972;2023-04-06T20:08:14;13.98;;;9.15;;
76477;SDS011;65309;49.790;18.972;2023-04-06T20:13:17;16.70;;;10.88;;
76477;SDS011;65309;49.790;18.972;2023-04-06T20:18:21;22.02;;;13.73;;
76477;SDS011;65309;49.790;18.972;2023-04-06T20:23:23;11.95;;;8.23;;
76477;SDS011;65309;49.790;18.972;2023-04-06T20:28:26;20.38;;;11.30;;
76477;SDS011;65309;49.790;18.972;2023-04-06T20:33:29;25.23;;;14.60;;
76477;SDS011;65309;49.790;18.972;2023-04-06T20:38:31;20.88;;;11.73;;
76477;SDS011;65309;49.790;18.972;2023-04-06T20:43:36;19.23;;;10.07;;
76477;SDS011;65309;49.790;18.972;2023-04-06T20:48:38;14.77;;;9.65;;
76477;SDS011;65309;49.790;18.972;2023-04-06T20:53:40;26.48;;;14.35;;
76477;SDS011;65309;49.790;18.972;2023-04-06T20:58:43;24.80;;;15.82;;
76477;SDS011;65309;49.790;18.972;2023-04-06T21:03:45;26.17;;;17.45;;
76477;SDS011;65309;49.790;18.972;2023-04-06T21:08:47;15.32;;;10.52;;
76477;SDS011;65309;49.790;18.972;2023-04-06T21:13:51;19.15;;;9.23;;
76477;SDS011;65309;49.790;18.972;2023-04-06T21:18:53;20.52;;;12.85;;
76477;SDS011;65309;49.790;18.972;2023-04-06T21:23:55;16.70;;;11.55;;
76477;SDS011;65309;49.790;18.972;2023-04-06T21:29:00;22.13;;;14.30;;
76477;SDS011;65309;49.790;18.972;2023-04-06T21:34:03;21.80;;;13.77;;
76477;SDS011;65309;49.790;18.972;2023-04-06T21:39:09;26.83;;;13.48;;
76477;SDS011;65309;49.790;18.972;2023-04-06T21:44:12;21.20;;;12.23;;
76477;SDS011;65309;49.790;18.972;2023-04-06T21:49:14;20.52;;;12.95;;
76477;SDS011;65309;49.790;18.972;2023-04-06T21:54:16;29.60;;;15.35;;
76477;SDS011;65309;49.790;18.972;2023-04-06T21:59:20;21.73;;;12.30;;
76477;SDS011;65309;49.790;18.972;2023-04-06T22:04:22;33.28;;;15.80;;
76477;SDS011;65309;49.790;18.972;2023-04-06T22:09:24;32.40;;;17.30;;
76477;SDS011;65309;49.790;18.972;2023-04-06T22:14:28;31.30;;;17.17;;
76477;SDS011;65309;49.790;18.972;2023-04-06T22:19:30;31.95;;;17.13;;
76477;SDS011;65309;49.790;18.972;2023-04-06T22:24:32;27.48;;;14.48;;
76477;SDS011;65309;49.790;18.972;2023-04-06T22:29:36;29.20;;;16.50;;
76477;SDS011;65309;49.790;18.972;2023-04-06T22:34:39;24.00;;;13.85;;
76477;SDS011;65309;49.790;18.972;2023-04-06T22:39:41;21.02;;;10.60;;
76477;SDS011;65309;49.790;18.972;2023-04-06T22:44:44;26.58;;;14.30;;
76477;SDS011;65309;49.790;18.972;2023-04-06T22:49:46;24.27;;;14.32;;
76477;SDS011;65309;49.790;18.972;2023-04-06T22:54:48;14.63;;;9.27;;
76477;SDS011;65309;49.790;18.972;2023-04-06T22:59:51;26.90;;;14.60;;
76477;SDS011;65309;49.790;18.972;2023-04-06T23:04:53;25.80;;;12.70;;
76477;SDS011;65309;49.790;18.972;2023-04-06T23:09:55;21.10;;;11.20;;
76477;SDS011;65309;49.790;18.972;2023-04-06T23:14:58;26.13;;;14.18;;
76477;SDS011;65309;49.790;18.972;2023-04-06T23:20:01;22.13;;;12.60;;
76477;SDS011;65309;49.790;18.972;2023-04-06T23:25:03;12.52;;;8.48;;
76477;SDS011;65309;49.790;18.972;2023-04-06T23:30:07;24.17;;;14.85;;
76477;SDS011;65309;49.790;18.972;2023-04-06T23:40:12;29.17;;;15.52;;
76477;SDS011;65309;49.790;18.972;2023-04-06T23:45:15;29.98;;;17.10;;
76477;SDS011;65309;49.790;18.972;2023-04-06T23:50:17;26.13;;;14.75;;
76477;SDS011;65309;49.790;18.972;2023-04-06T23:55:19;29.70;;;18.20;;
